• Join FlightAware (Why Join?)
  • Login
  • US Flag 
10:34PM EDT


 

Airport Tracker/Info


-or-


 

Live Flight TrackerFlight Track Log ✈ SWA3561 ✈ 04-May-2013 ✈ KDAL - KSAT

Flight Track Log - Related Links

Times and Time Zones

All times are in EDT time to prevent confusion due to time zone crossing. See the SWA3561 flight status page for this flight to view local times or setup timezone preferences in your user account.

Time Position Orientation Groundspeed Altitude Reporting Facility
EDT Latitude Longitude Course Direction KTS MPH feet Rate Location/Type
09:29AM 32.9000 -96.9000 323° Northwest 209 241 3,800  Level Dallas / Fort Worth TRACON
09:30AM 32.9000 -96.9667 270° West 223 257 7,200 3,120 Climbing Dallas / Fort Worth TRACON
09:32AM 32.7453 -97.0428 202° Southwest 320 368 13,900 3,000 Climbing Fort Worth Center
09:33AM 32.6408 -97.0483 183° South 370 426 16,800 3,300 Climbing Fort Worth Center
09:34AM 32.5322 -97.0511 181° South 389 448 20,600 3,120 Climbing Fort Worth Center
09:35AM 32.4258 -97.0564 182° South 389 448 23,100 2,100 Climbing Fort Worth Center
09:36AM 32.3236 -97.0594 181° South 395 455 24,800 1,980 Climbing Fort Worth Center
09:37AM 32.1942 -97.0622 181° South 417 480 27,100 2,160 Climbing Fort Worth Center
09:38AM 32.0750 -97.0653 181° South 423 487 29,200 1,440 Climbing Fort Worth Center
09:39AM 31.9644 -97.0656 180° South 434 499 30,000 360 Climbing Fort Worth Center
09:40AM 31.8414 -97.0733 183° South 440 506 30,000  Level Fort Worth Center
09:41AM 31.7222 -97.0786 182° South 440 506 30,000  Level Fort Worth Center
09:42AM 31.6017 -97.0808 181° South 433 498 30,000  Level Houston Center
09:43AM 31.4858 -97.1006 188° South 415 478 30,000  Level Houston Center
09:44AM 31.3594 -97.1497 198° South 406 467 30,000  Level Houston Center
09:45AM 31.2500 -97.1925 198° South 409 471 30,000  Level Houston Center
09:46AM 31.1422 -97.2350 199° South 407 468 30,000  Level Houston Center
09:47AM 31.0347 -97.2775 199° South 407 468 30,000  Level Houston Center
09:48AM 30.9286 -97.3178 198° South 413 475 30,000  Level Houston Center
09:49AM 30.8194 -97.3603 198° South 417 480 30,000  Level Houston Center
09:50AM 30.7108 -97.4017 198° South 410 472 30,000  Level Houston Center
09:51AM 30.6008 -97.4450 199° South 412 474 30,000 -960 Level Houston Center
09:52AM 30.4917 -97.4872 198° South 410 472 28,100 -2,460 Descending Houston Center
09:53AM 30.3675 -97.5381 199° South 403 464 25,000 -3,060 Descending Houston Center
09:54AM 30.2758 -97.6022 211° Southwest 382 440 21,900 -2,640 Descending Houston Center
09:55AM 30.1853 -97.6642 211° Southwest 377 434 19,700 -2,040 Descending Houston Center
09:56AM 30.1372 -97.6983 212° Southwest 359 413 18,400 -2,100 Descending Houston Center
09:56AM 30.1019 -97.7219 210° Southwest 354 407 17,600 -2,160 Descending Houston Center
09:57AM 30.0544 -97.7550 211° Southwest 339 390 16,500 -1,980 Descending Houston Center
09:58AM 30.0181 -97.7781 209° Southwest 333 383 15,600 -1,980 Descending Houston Center
09:58AM 29.9778 -97.8083 213° Southwest 324 373 14,500 -2,100 Descending Houston Center
09:59AM 29.9425 -97.8317 210° Southwest 318 366 13,500 -1,800 Descending Houston Center
09:59AM 29.9028 -97.8586 210° Southwest 314 361 12,700 -1,800 Descending Houston Center
10:00AM 29.8797 -97.9017 238° Southwest 296 341 11,700 -1,980 Descending Houston Center
10:00AM 29.8628 -97.9458 246° West 280 322 10,700 -1,800 Descending Houston Center
10:01AM 29.8453 -97.9839 242° Southwest 284 327 9,900 -1,800 Descending Houston Center
10:01AM 29.8283 -98.0272 246° West 281 323 8,900 -1,800 Descending Houston Center
10:02AM 29.8114 -98.0653 243° Southwest 284 327 8,100 -1,620 Descending Houston Center
10:02AM 29.7942 -98.1086 245° Southwest 284 327 7,300 -1,380 Descending Houston Center
10:03AM 29.7769 -98.1456 242° Southwest 279 321 6,700 -1,200 Descending Houston Center
10:03AM 29.7594 -98.1875 244° Southwest 273 314 6,100 -900 Descending Houston Center
10:04AM 29.7433 -98.2253 244° Southwest 258 297 5,800 -660 Descending Houston Center
10:04AM 29.7175 -98.2553 225° Southwest 247 284 5,400 -780 Descending Houston Center
10:05AM 29.6961 -98.2811 226° Southwest 243 280 5,000 -900 Descending Houston Center
10:05AM 29.6761 -98.3058 227° Southwest 229 264 4,600 -840 Descending Houston Center
10:06AM 29.6533 -98.3333 226° Southwest 225 259 4,200 -900 Descending Houston Center
10:06AM 29.6403 -98.3511 230° Southwest 207 238 3,800 -1,200 Descending Houston Center
10:07AM 29.6167 -98.3769 224° Southwest 176 203 3,000 -1,140 Descending Houston Center
10:07AM 29.6061 -98.3889 225° Southwest 148 170 2,600 -1,020 Descending Houston Center
10:08AM 29.5878 -98.4072 221° Southwest 148 170 2,000 -900 Descending Houston Center
10:08AM 29.5772 -98.4164 217° Southwest 106 122 1,700 -600 Descending Houston Center
10:09AM 29.5656 -98.4289 223° Southwest 110 127 1,400 -540 Descending Houston Center
10:09AM 29.5500 -98.4414 215° Southwest 115 132 1,100 -600 Descending Houston Center
10:10AM 29.5408 -98.4550 232° Southwest 116 133 800 -600 Descending Houston Center
10:12AM 29.5333 -98.4667 229° Southwest  Level FlightAware Approximate
10:19AM 29.5340 -98.4691 229° Southwest  Level Estimated